sensor_id;sensor_type;location;lat;lon;timestamp;pressure;altitude;pressure_sealevel;temperature;humidity
17209;BME280;8720;48.488;9.202;2023-06-10T00:04:15;96615.47;;;22.26;40.59
17209;BME280;8720;48.488;9.202;2023-06-10T00:07:02;96605.78;;;22.25;40.61
17209;BME280;8720;48.488;9.202;2023-06-10T00:10:20;96607.56;;;22.14;40.54
17209;BME280;8720;48.488;9.202;2023-06-10T00:13:31;96607.34;;;22.17;41.07
17209;BME280;8720;48.488;9.202;2023-06-10T00:16:13;96607.56;;;22.14;41.28
17209;BME280;8720;48.488;9.202;2023-06-10T00:19:30;96605.03;;;22.12;41.36
17209;BME280;8720;48.488;9.202;2023-06-10T00:22:26;96606.13;;;22.10;41.22
17209;BME280;8720;48.488;9.202;2023-06-10T00:25:36;96608.28;;;22.05;40.99
17209;BME280;8720;48.488;9.202;2023-06-10T00:28:37;96607.66;;;22.01;41.33
17209;BME280;8720;48.488;9.202;2023-06-10T00:32:08;96605.69;;;21.92;41.24
17209;BME280;8720;48.488;9.202;2023-06-10T00:35:06;96607.72;;;21.89;41.65
17209;BME280;8720;48.488;9.202;2023-06-10T00:38:06;96606.28;;;21.85;41.86
17209;BME280;8720;48.488;9.202;2023-06-10T00:41:13;96608.22;;;21.83;42.05
17209;BME280;8720;48.488;9.202;2023-06-10T00:47:21;96610.44;;;21.76;41.77
17209;BME280;8720;48.488;9.202;2023-06-10T00:50:07;96621.09;;;21.76;42.00
17209;BME280;8720;48.488;9.202;2023-06-10T00:53:30;96615.34;;;21.69;41.51
17209;BME280;8720;48.488;9.202;2023-06-10T00:56:40;96613.69;;;21.68;41.66
17209;BME280;8720;48.488;9.202;2023-06-10T00:59:17;96608.34;;;21.68;42.02
17209;BME280;8720;48.488;9.202;2023-06-10T01:02:57;96608.56;;;21.65;42.24
17209;BME280;8720;48.488;9.202;2023-06-10T01:05:03;96607.84;;;21.63;42.41
17209;BME280;8720;48.488;9.202;2023-06-10T01:07:56;96606.25;;;21.61;42.29
17209;BME280;8720;48.488;9.202;2023-06-10T01:10:45;96615.44;;;21.57;42.65
17209;BME280;8720;48.488;9.202;2023-06-10T01:14:02;96611.41;;;21.51;42.71
17209;BME280;8720;48.488;9.202;2023-06-10T01:16:48;96608.13;;;21.48;42.52
17209;BME280;8720;48.488;9.202;2023-06-10T01:19:42;96607.41;;;21.46;42.83
17209;BME280;8720;48.488;9.202;2023-06-10T01:22:48;96611.38;;;21.40;42.67
17209;BME280;8720;48.488;9.202;2023-06-10T01:26:09;96611.06;;;21.32;43.25
17209;BME280;8720;48.488;9.202;2023-06-10T01:29:16;96612.13;;;21.30;43.09
17209;BME280;8720;48.488;9.202;2023-06-10T01:32:45;96610.78;;;21.24;43.06
17209;BME280;8720;48.488;9.202;2023-06-10T01:36:10;96612.06;;;21.19;43.19
17209;BME280;8720;48.488;9.202;2023-06-10T01:42:39;96616.03;;;21.13;43.11
17209;BME280;8720;48.488;9.202;2023-06-10T01:45:44;96613.69;;;21.09;43.59
17209;BME280;8720;48.488;9.202;2023-06-10T01:48:43;96619.31;;;21.04;43.58
17209;BME280;8720;48.488;9.202;2023-06-10T01:51:47;96625.91;;;20.99;43.66
17209;BME280;8720;48.488;9.202;2023-06-10T01:54:59;96628.78;;;20.96;43.80
17209;BME280;8720;48.488;9.202;2023-06-10T01:57:55;96629.00;;;20.93;43.59
17209;BME280;8720;48.488;9.202;2023-06-10T02:03:15;96629.44;;;20.87;44.35
17209;BME280;8720;48.488;9.202;2023-06-10T02:05:43;96625.19;;;20.84;44.36
17209;BME280;8720;48.488;9.202;2023-06-10T02:08:11;96626.25;;;20.81;44.30
17209;BME280;8720;48.488;9.202;2023-06-10T02:10:39;96599.38;;;20.61;44.22
17209;BME280;8720;48.488;9.202;2023-06-10T02:13:07;96615.66;;;20.69;44.71
17209;BME280;8720;48.488;9.202;2023-06-10T02:15:34;96628.59;;;20.73;44.42
17209;BME280;8720;48.488;9.202;2023-06-10T02:18:02;96620.84;;;20.70;44.26
17209;BME280;8720;48.488;9.202;2023-06-10T02:20:29;96628.19;;;20.67;44.62
17209;BME280;8720;48.488;9.202;2023-06-10T02:22:57;96632.78;;;20.65;44.59
17209;BME280;8720;48.488;9.202;2023-06-10T02:25:24;96636.59;;;20.61;45.03
17209;BME280;8720;48.488;9.202;2023-06-10T02:27:53;96633.19;;;20.59;44.86
17209;BME280;8720;48.488;9.202;2023-06-10T02:30:21;96641.38;;;20.56;44.85
17209;BME280;8720;48.488;9.202;2023-06-10T02:32:48;96632.66;;;20.54;45.21
17209;BME280;8720;48.488;9.202;2023-06-10T02:35:18;96634.78;;;20.49;45.21
17209;BME280;8720;48.488;9.202;2023-06-10T02:37:45;96644.66;;;20.47;45.43
17209;BME280;8720;48.488;9.202;2023-06-10T02:40:13;96647.56;;;20.44;45.26
17209;BME280;8720;48.488;9.202;2023-06-10T02:42:40;96643.19;;;20.43;45.50
17209;BME280;8720;48.488;9.202;2023-06-10T02:45:10;96645.09;;;20.41;45.30
17209;BME280;8720;48.488;9.202;2023-06-10T02:47:41;96651.56;;;20.37;45.32
17209;BME280;8720;48.488;9.202;2023-06-10T02:50:10;96651.78;;;20.34;45.36
17209;BME280;8720;48.488;9.202;2023-06-10T02:52:46;96651.97;;;20.31;45.67
17209;BME280;8720;48.488;9.202;2023-06-10T02:55:14;96648.56;;;20.29;46.09
17209;BME280;8720;48.488;9.202;2023-06-10T02:57:48;96655.81;;;20.27;46.20
17209;BME280;8720;48.488;9.202;2023-06-10T03:00:19;96652.50;;;20.23;46.06
17209;BME280;8720;48.488;9.202;2023-06-10T03:02:48;96650.94;;;20.21;46.09
17209;BME280;8720;48.488;9.202;2023-06-10T03:05:17;96653.75;;;20.18;46.00
17209;BME280;8720;48.488;9.202;2023-06-10T03:07:48;96659.28;;;20.15;46.01
17209;BME280;8720;48.488;9.202;2023-06-10T03:10:16;96663.84;;;20.13;46.12
17209;BME280;8720;48.488;9.202;2023-06-10T03:12:43;96663.09;;;20.11;46.31
17209;BME280;8720;48.488;9.202;2023-06-10T03:15:11;96666.03;;;20.06;46.43
17209;BME280;8720;48.488;9.202;2023-06-10T03:17:42;96668.06;;;20.03;46.31
17209;BME280;8720;48.488;9.202;2023-06-10T03:20:11;96669.09;;;20.00;46.63
17209;BME280;8720;48.488;9.202;2023-06-10T03:22:41;96669.31;;;19.97;46.29
17209;BME280;8720;48.488;9.202;2023-06-10T03:25:09;96677.59;;;19.92;46.55
17209;BME280;8720;48.488;9.202;2023-06-10T03:27:42;96677.59;;;19.92;46.44
17209;BME280;8720;48.488;9.202;2023-06-10T03:30:11;96680.34;;;19.91;47.00
17209;BME280;8720;48.488;9.202;2023-06-10T03:32:41;96675.97;;;19.90;46.64
17209;BME280;8720;48.488;9.202;2023-06-10T03:35:11;96681.41;;;19.88;46.98
17209;BME280;8720;48.488;9.202;2023-06-10T03:37:38;96675.44;;;19.85;46.95
17209;BME280;8720;48.488;9.202;2023-06-10T03:40:08;96680.56;;;19.88;46.88
17209;BME280;8720;48.488;9.202;2023-06-10T03:42:37;96679.06;;;19.84;46.86
17209;BME280;8720;48.488;9.202;2023-06-10T03:45:07;96684.38;;;19.84;47.05
17209;BME280;8720;48.488;9.202;2023-06-10T03:47:36;96687.09;;;19.82;47.07
17209;BME280;8720;48.488;9.202;2023-06-10T03:50:10;96691.59;;;19.82;47.11
17209;BME280;8720;48.488;9.202;2023-06-10T03:52:40;96694.25;;;19.82;47.33
17209;BME280;8720;48.488;9.202;2023-06-10T03:55:08;96696.03;;;19.81;47.64
17209;BME280;8720;48.488;9.202;2023-06-10T03:57:37;96694.13;;;19.83;47.60
17209;BME280;8720;48.488;9.202;2023-06-10T04:00:07;96706.38;;;19.86;47.45
17209;BME280;8720;48.488;9.202;2023-06-10T04:02:41;96700.09;;;19.87;47.47
17209;BME280;8720;48.488;9.202;2023-06-10T04:05:19;96700.84;;;19.89;47.53
17209;BME280;8720;48.488;9.202;2023-06-10T04:07:48;96703.28;;;19.92;47.56
17209;BME280;8720;48.488;9.202;2023-06-10T04:10:16;96702.06;;;19.98;47.72
17209;BME280;8720;48.488;9.202;2023-06-10T04:12:44;96692.91;;;20.02;47.72
17209;BME280;8720;48.488;9.202;2023-06-10T04:15:12;96699.06;;;20.02;47.62
17209;BME280;8720;48.488;9.202;2023-06-10T04:17:40;96700.28;;;20.11;47.80
17209;BME280;8720;48.488;9.202;2023-06-10T04:20:10;96700.91;;;20.14;47.88
17209;BME280;8720;48.488;9.202;2023-06-10T04:22:41;96705.75;;;20.22;47.75
17209;BME280;8720;48.488;9.202;2023-06-10T04:25:10;96706.19;;;20.28;47.81
17209;BME280;8720;48.488;9.202;2023-06-10T04:27:39;96701.19;;;20.36;47.93
17209;BME280;8720;48.488;9.202;2023-06-10T04:30:07;96694.72;;;20.40;47.86
17209;BME280;8720;48.488;9.202;2023-06-10T04:32:37;96710.47;;;20.56;47.67
17209;BME280;8720;48.488;9.202;2023-06-10T04:35:11;96709.84;;;20.77;47.70
17209;BME280;8720;48.488;9.202;2023-06-10T04:37:38;96704.75;;;21.25;47.46
17209;BME280;8720;48.488;9.202;2023-06-10T04:40:09;96704.34;;;21.91;47.20
17209;BME280;8720;48.488;9.202;2023-06-10T04:42:37;96714.28;;;22.82;46.16
17209;BME280;8720;48.488;9.202;2023-06-10T04:45:06;96709.63;;;23.52;45.65
17209;BME280;8720;48.488;9.202;2023-06-10T04:47:34;96708.88;;;24.25;45.02
17209;BME280;8720;48.488;9.202;2023-06-10T04:50:03;96714.22;;;24.98;44.11
17209;BME280;8720;48.488;9.202;2023-06-10T04:52:31;96717.38;;;25.73;43.48
17209;BME280;8720;48.488;9.202;2023-06-10T04:54:59;96709.63;;;26.48;42.16
17209;BME280;8720;48.488;9.202;2023-06-10T04:57:28;96709.97;;;27.20;41.09
17209;BME280;8720;48.488;9.202;2023-06-10T04:59:55;96714.09;;;27.88;39.89
17209;BME280;8720;48.488;9.202;2023-06-10T05:02:22;96708.56;;;28.52;38.89
17209;BME280;8720;48.488;9.202;2023-06-10T05:04:50;96717.81;;;29.10;37.75
17209;BME280;8720;48.488;9.202;2023-06-10T05:07:17;96707.56;;;29.65;36.85
17209;BME280;8720;48.488;9.202;2023-06-10T05:09:44;96704.06;;;30.14;36.42
17209;BME280;8720;48.488;9.202;2023-06-10T05:12:12;96715.16;;;30.61;35.56
17209;BME280;8720;48.488;9.202;2023-06-10T05:14:40;96717.38;;;31.06;34.78
17209;BME280;8720;48.488;9.202;2023-06-10T05:17:08;96719.75;;;31.41;34.29
17209;BME280;8720;48.488;9.202;2023-06-10T05:19:35;96721.19;;;31.68;33.62
17209;BME280;8720;48.488;9.202;2023-06-10T05:22:04;96724.31;;;31.87;32.99
17209;BME280;8720;48.488;9.202;2023-06-10T05:24:31;96726.94;;;32.11;32.77
17209;BME280;8720;48.488;9.202;2023-06-10T05:26:58;96721.09;;;32.31;32.08
17209;BME280;8720;48.488;9.202;2023-06-10T05:29:25;96728.25;;;32.54;31.59
17209;BME280;8720;48.488;9.202;2023-06-10T05:31:54;96732.00;;;32.76;31.33
17209;BME280;8720;48.488;9.202;2023-06-10T05:34:23;96731.50;;;33.03;31.17
17209;BME280;8720;48.488;9.202;2023-06-10T05:36:50;96733.13;;;33.27;30.75
17209;BME280;8720;48.488;9.202;2023-06-10T05:39:18;96736.09;;;33.54;30.05
17209;BME280;8720;48.488;9.202;2023-06-10T05:41:46;96737.78;;;33.84;29.40
17209;BME280;8720;48.488;9.202;2023-06-10T05:44:13;96735.94;;;34.14;29.35
17209;BME280;8720;48.488;9.202;2023-06-10T05:46:41;96730.09;;;34.46;28.78
17209;BME280;8720;48.488;9.202;2023-06-10T05:49:10;96719.97;;;34.76;28.09
17209;BME280;8720;48.488;9.202;2023-06-10T05:51:37;96726.06;;;34.99;27.97
17209;BME280;8720;48.488;9.202;2023-06-10T05:54:04;96724.19;;;35.21;27.69
17209;BME280;8720;48.488;9.202;2023-06-10T05:56:32;96729.00;;;35.46;27.15
17209;BME280;8720;48.488;9.202;2023-06-10T05:58:59;96731.94;;;35.73;26.87
17209;BME280;8720;48.488;9.202;2023-06-10T06:01:26;96727.50;;;35.99;26.53
17209;BME280;8720;48.488;9.202;2023-06-10T06:03:53;96730.81;;;36.29;26.22
17209;BME280;8720;48.488;9.202;2023-06-10T06:06:22;96727.16;;;36.56;25.66
17209;BME280;8720;48.488;9.202;2023-06-10T06:08:49;96728.44;;;36.67;25.51
17209;BME280;8720;48.488;9.202;2023-06-10T06:11:17;96723.84;;;36.80;25.15
17209;BME280;8720;48.488;9.202;2023-06-10T06:13:44;96727.69;;;36.99;25.03
17209;BME280;8720;48.488;9.202;2023-06-10T06:16:11;96727.06;;;37.16;24.76
17209;BME280;8720;48.488;9.202;2023-06-10T06:18:38;96721.00;;;37.34;24.47
17209;BME280;8720;48.488;9.202;2023-06-10T06:21:06;96720.16;;;37.53;24.33
17209;BME280;8720;48.488;9.202;2023-06-10T06:23:34;96722.47;;;37.63;24.11
17209;BME280;8720;48.488;9.202;2023-06-10T06:26:02;96721.38;;;37.70;24.05
17209;BME280;8720;48.488;9.202;2023-06-10T06:28:29;96723.31;;;37.83;23.67
17209;BME280;8720;48.488;9.202;2023-06-10T06:30:57;96723.03;;;37.97;23.63
17209;BME280;8720;48.488;9.202;2023-06-10T06:33:24;96728.91;;;38.14;23.64
17209;BME280;8720;48.488;9.202;2023-06-10T06:35:52;96735.84;;;38.23;23.19
17209;BME280;8720;48.488;9.202;2023-06-10T06:38:19;96721.47;;;38.34;23.16
17209;BME280;8720;48.488;9.202;2023-06-10T06:40:50;96726.91;;;38.47;22.78
17209;BME280;8720;48.488;9.202;2023-06-10T06:43:17;96729.59;;;38.54;22.98
17209;BME280;8720;48.488;9.202;2023-06-10T06:46:08;96726.63;;;38.55;22.65
17209;BME280;8720;48.488;9.202;2023-06-10T06:48:36;96720.34;;;38.55;22.68
17209;BME280;8720;48.488;9.202;2023-06-10T06:51:03;96732.72;;;38.57;22.76
17209;BME280;8720;48.488;9.202;2023-06-10T06:53:30;96725.75;;;38.61;22.89
17209;BME280;8720;48.488;9.202;2023-06-10T06:55:59;96735.03;;;38.67;22.89
17209;BME280;8720;48.488;9.202;2023-06-10T06:58:26;96727.66;;;38.67;22.68
17209;BME280;8720;48.488;9.202;2023-06-10T07:00:53;96730.84;;;38.64;22.50
17209;BME280;8720;48.488;9.202;2023-06-10T07:03:22;96727.47;;;38.62;22.48
17209;BME280;8720;48.488;9.202;2023-06-10T07:05:49;96726.00;;;38.60;22.75
17209;BME280;8720;48.488;9.202;2023-06-10T07:08:16;96726.38;;;38.63;22.62
17209;BME280;8720;48.488;9.202;2023-06-10T07:10:43;96726.22;;;38.58;22.49
17209;BME280;8720;48.488;9.202;2023-06-10T07:13:12;96723.09;;;38.48;22.72
17209;BME280;8720;48.488;9.202;2023-06-10T07:15:39;96729.22;;;38.44;22.67
17209;BME280;8720;48.488;9.202;2023-06-10T07:18:07;96730.13;;;38.31;22.51
17209;BME280;8720;48.488;9.202;2023-06-10T07:20:34;96730.34;;;38.16;22.55
17209;BME280;8720;48.488;9.202;2023-06-10T07:23:01;96733.56;;;37.94;22.85
17209;BME280;8720;48.488;9.202;2023-06-10T07:25:28;96726.84;;;37.70;22.79
17209;BME280;8720;48.488;9.202;2023-06-10T07:27:56;96732.97;;;37.59;23.12
17209;BME280;8720;48.488;9.202;2023-06-10T07:30:24;96727.72;;;37.58;23.15
17209;BME280;8720;48.488;9.202;2023-06-10T07:32:52;96734.44;;;37.62;23.47
17209;BME280;8720;48.488;9.202;2023-06-10T07:35:19;96727.72;;;37.51;23.11
17209;BME280;8720;48.488;9.202;2023-06-10T07:37:46;96725.63;;;37.40;23.54
17209;BME280;8720;48.488;9.202;2023-06-10T07:40:14;96724.38;;;37.29;23.57
17209;BME280;8720;48.488;9.202;2023-06-10T07:42:41;96729.59;;;37.18;23.67
17209;BME280;8720;48.488;9.202;2023-06-10T07:45:09;96719.31;;;37.00;23.86
17209;BME280;8720;48.488;9.202;2023-06-10T07:47:38;96723.44;;;36.83;23.96
17209;BME280;8720;48.488;9.202;2023-06-10T07:50:06;96710.00;;;36.75;24.41
17209;BME280;8720;48.488;9.202;2023-06-10T07:52:33;96714.41;;;36.76;24.13
17209;BME280;8720;48.488;9.202;2023-06-10T07:55:01;96707.03;;;36.70;24.15
17209;BME280;8720;48.488;9.202;2023-06-10T07:57:28;96716.88;;;36.58;23.98
17209;BME280;8720;48.488;9.202;2023-06-10T07:59:57;96719.78;;;36.50;24.49
17209;BME280;8720;48.488;9.202;2023-06-10T08:02:26;96717.66;;;36.39;24.57
17209;BME280;8720;48.488;9.202;2023-06-10T08:04:54;96712.09;;;36.19;24.73
17209;BME280;8720;48.488;9.202;2023-06-10T08:07:22;96716.47;;;36.14;24.63
17209;BME280;8720;48.488;9.202;2023-06-10T08:09:49;96721.03;;;36.07;24.73
17209;BME280;8720;48.488;9.202;2023-06-10T08:12:16;96711.69;;;35.88;24.66
17209;BME280;8720;48.488;9.202;2023-06-10T08:14:45;96706.19;;;35.75;25.19
17209;BME280;8720;48.488;9.202;2023-06-10T08:17:12;96703.97;;;35.57;25.10
17209;BME280;8720;48.488;9.202;2023-06-10T08:19:39;96704.03;;;35.43;25.36
17209;BME280;8720;48.488;9.202;2023-06-10T08:22:08;96705.03;;;35.35;25.75
17209;BME280;8720;48.488;9.202;2023-06-10T08:24:35;96696.66;;;35.37;25.47
17209;BME280;8720;48.488;9.202;2023-06-10T08:27:04;96701.16;;;35.23;25.49
17209;BME280;8720;48.488;9.202;2023-06-10T08:29:31;96703.53;;;35.05;25.83
17209;BME280;8720;48.488;9.202;2023-06-10T08:31:59;96695.59;;;34.89;26.17
17209;BME280;8720;48.488;9.202;2023-06-10T08:34:26;96702.34;;;34.72;26.41
17209;BME280;8720;48.488;9.202;2023-06-10T08:36:53;96699.63;;;34.51;26.41
17209;BME280;8720;48.488;9.202;2023-06-10T08:39:22;96712.94;;;34.46;26.50
17209;BME280;8720;48.488;9.202;2023-06-10T08:42:02;96713.59;;;34.33;26.84
17209;BME280;8720;48.488;9.202;2023-06-10T08:44:35;96708.38;;;34.17;26.75
17209;BME280;8720;48.488;9.202;2023-06-10T08:47:11;96702.34;;;34.01;26.94
17209;BME280;8720;48.488;9.202;2023-06-10T08:49:44;96712.59;;;33.90;27.16
17209;BME280;8720;48.488;9.202;2023-06-10T08:52:17;96702.13;;;33.87;27.41
17209;BME280;8720;48.488;9.202;2023-06-10T08:54:52;96702.50;;;33.84;27.52
17209;BME280;8720;48.488;9.202;2023-06-10T08:57:21;96705.22;;;33.70;27.73
17209;BME280;8720;48.488;9.202;2023-06-10T08:59:50;96698.88;;;33.63;27.74
17209;BME280;8720;48.488;9.202;2023-06-10T09:02:20;96695.88;;;33.72;27.96
17209;BME280;8720;48.488;9.202;2023-06-10T09:04:49;96704.19;;;33.85;27.54
17209;BME280;8720;48.488;9.202;2023-06-10T09:07:16;96702.41;;;33.92;27.75
17209;BME280;8720;48.488;9.202;2023-06-10T09:09:45;96697.16;;;33.91;27.61
17209;BME280;8720;48.488;9.202;2023-06-10T09:12:14;96688.38;;;33.89;27.88
17209;BME280;8720;48.488;9.202;2023-06-10T09:14:42;96683.50;;;33.84;27.68
17209;BME280;8720;48.488;9.202;2023-06-10T09:17:09;96687.06;;;33.70;27.76
17209;BME280;8720;48.488;9.202;2023-06-10T09:19:38;96683.88;;;33.52;27.94
17209;BME280;8720;48.488;9.202;2023-06-10T09:22:07;96687.59;;;33.37;27.69
17209;BME280;8720;48.488;9.202;2023-06-10T09:24:35;96684.94;;;33.14;27.71
17209;BME280;8720;48.488;9.202;2023-06-10T09:27:04;96671.75;;;32.88;28.08
17209;BME280;8720;48.488;9.202;2023-06-10T09:29:46;96683.41;;;32.74;27.86
17209;BME280;8720;48.488;9.202;2023-06-10T09:32:14;96688.75;;;32.60;28.00
17209;BME280;8720;48.488;9.202;2023-06-10T09:34:43;96675.47;;;32.42;27.36
17209;BME280;8720;48.488;9.202;2023-06-10T09:37:11;96677.28;;;32.27;27.90
17209;BME280;8720;48.488;9.202;2023-06-10T09:39:39;96683.28;;;32.14;27.99
17209;BME280;8720;48.488;9.202;2023-06-10T09:42:16;96675.91;;;32.00;27.92
17209;BME280;8720;48.488;9.202;2023-06-10T09:44:51;96676.28;;;31.89;28.02
17209;BME280;8720;48.488;9.202;2023-06-10T09:47:21;96675.63;;;31.87;27.83
17209;BME280;8720;48.488;9.202;2023-06-10T09:49:49;96681.91;;;31.80;27.83
17209;BME280;8720;48.488;9.202;2023-06-10T09:52:22;96677.34;;;31.72;27.95
17209;BME280;8720;48.488;9.202;2023-06-10T09:54:51;96680.41;;;31.69;28.19
17209;BME280;8720;48.488;9.202;2023-06-10T09:57:19;96686.97;;;31.75;28.13
17209;BME280;8720;48.488;9.202;2023-06-10T09:59:47;96680.03;;;31.80;27.86
17209;BME280;8720;48.488;9.202;2023-06-10T10:02:17;96686.97;;;31.91;27.98
17209;BME280;8720;48.488;9.202;2023-06-10T10:04:45;96685.78;;;31.93;28.06
17209;BME280;8720;48.488;9.202;2023-06-10T10:07:13;96680.50;;;31.92;27.41
17209;BME280;8720;48.488;9.202;2023-06-10T10:09:41;96674.94;;;31.85;27.95
17209;BME280;8720;48.488;9.202;2023-06-10T10:12:11;96676.34;;;31.73;28.13
17209;BME280;8720;48.488;9.202;2023-06-10T10:14:40;96677.03;;;31.67;27.62
17209;BME280;8720;48.488;9.202;2023-06-10T10:17:11;96683.50;;;31.58;27.90
17209;BME280;8720;48.488;9.202;2023-06-10T10:19:46;96683.03;;;31.47;27.98
17209;BME280;8720;48.488;9.202;2023-06-10T10:22:20;96667.69;;;31.23;28.21
17209;BME280;8720;48.488;9.202;2023-06-10T10:24:53;96671.75;;;31.19;27.97
17209;BME280;8720;48.488;9.202;2023-06-10T10:27:28;96680.22;;;31.16;28.34
17209;BME280;8720;48.488;9.202;2023-06-10T10:29:58;96672.78;;;31.18;28.72
17209;BME280;8720;48.488;9.202;2023-06-10T10:32:32;96670.41;;;31.15;28.61
17209;BME280;8720;48.488;9.202;2023-06-10T10:35:08;96681.22;;;31.07;28.75
17209;BME280;8720;48.488;9.202;2023-06-10T10:37:40;96677.34;;;31.01;28.65
17209;BME280;8720;48.488;9.202;2023-06-10T10:40:09;96683.44;;;30.95;28.51
17209;BME280;8720;48.488;9.202;2023-06-10T10:42:38;96675.84;;;30.91;28.62
17209;BME280;8720;48.488;9.202;2023-06-10T10:45:09;96678.88;;;30.88;28.75
17209;BME280;8720;48.488;9.202;2023-06-10T10:47:37;96677.53;;;30.84;29.02
17209;BME280;8720;48.488;9.202;2023-06-10T10:50:16;96667.41;;;30.86;29.05
17209;BME280;8720;48.488;9.202;2023-06-10T10:52:53;96676.00;;;30.97;29.18
17209;BME280;8720;48.488;9.202;2023-06-10T10:55:22;96675.13;;;31.05;29.25
17209;BME280;8720;48.488;9.202;2023-06-10T10:57:57;96662.84;;;31.02;28.77
17209;BME280;8720;48.488;9.202;2023-06-10T11:00:29;96668.91;;;31.04;29.11
17209;BME280;8720;48.488;9.202;2023-06-10T11:03:06;96667.88;;;30.97;29.01
17209;BME280;8720;48.488;9.202;2023-06-10T11:05:41;96670.09;;;31.02;29.13
17209;BME280;8720;48.488;9.202;2023-06-10T11:08:14;96675.50;;;31.02;28.76
17209;BME280;8720;48.488;9.202;2023-06-10T11:10:51;96671.94;;;31.01;28.99
17209;BME280;8720;48.488;9.202;2023-06-10T11:13:21;96671.78;;;30.95;29.22
17209;BME280;8720;48.488;9.202;2023-06-10T11:15:50;96669.09;;;30.87;28.99
17209;BME280;8720;48.488;9.202;2023-06-10T11:18:23;96665.34;;;30.80;29.09
17209;BME280;8720;48.488;9.202;2023-06-10T11:20:58;96668.03;;;30.80;29.21
17209;BME280;8720;48.488;9.202;2023-06-10T11:23:40;96657.78;;;30.83;29.48
17209;BME280;8720;48.488;9.202;2023-06-10T11:26:35;96673.28;;;30.81;29.52
17209;BME280;8720;48.488;9.202;2023-06-10T11:29:09;96663.00;;;30.77;29.30
17209;BME280;8720;48.488;9.202;2023-06-10T11:31:46;96663.66;;;30.79;29.34
17209;BME280;8720;48.488;9.202;2023-06-10T11:34:21;96659.09;;;30.71;29.30
17209;BME280;8720;48.488;9.202;2023-06-10T11:36:52;96661.44;;;30.66;29.46
17209;BME280;8720;48.488;9.202;2023-06-10T11:39:21;96657.59;;;30.69;29.66
17209;BME280;8720;48.488;9.202;2023-06-10T11:41:52;96663.34;;;30.74;29.26
17209;BME280;8720;48.488;9.202;2023-06-10T11:44:20;96653.84;;;30.78;29.19
17209;BME280;8720;48.488;9.202;2023-06-10T11:46:48;96655.91;;;30.84;29.24
17209;BME280;8720;48.488;9.202;2023-06-10T11:49:17;96654.22;;;30.91;29.27
17209;BME280;8720;48.488;9.202;2023-06-10T11:51:44;96650.84;;;30.97;28.88
17209;BME280;8720;48.488;9.202;2023-06-10T11:54:19;96646.13;;;30.99;29.33
17209;BME280;8720;48.488;9.202;2023-06-10T11:56:47;96652.00;;;31.10;29.42
17209;BME280;8720;48.488;9.202;2023-06-10T11:59:15;96641.69;;;31.06;29.03
17209;BME280;8720;48.488;9.202;2023-06-10T12:01:44;96651.34;;;31.08;29.06
17209;BME280;8720;48.488;9.202;2023-06-10T12:04:13;96654.19;;;31.07;29.28
17209;BME280;8720;48.488;9.202;2023-06-10T12:06:43;96650.47;;;31.08;29.15
17209;BME280;8720;48.488;9.202;2023-06-10T12:09:21;96641.34;;;31.09;29.33
17209;BME280;8720;48.488;9.202;2023-06-10T12:11:51;96638.81;;;31.15;29.12
17209;BME280;8720;48.488;9.202;2023-06-10T12:14:53;96634.94;;;31.18;29.10
17209;BME280;8720;48.488;9.202;2023-06-10T12:17:23;96646.06;;;31.23;29.16
17209;BME280;8720;48.488;9.202;2023-06-10T12:19:51;96636.09;;;31.23;29.05
17209;BME280;8720;48.488;9.202;2023-06-10T12:22:19;96640.13;;;31.27;29.01
17209;BME280;8720;48.488;9.202;2023-06-10T12:24:59;96634.72;;;31.27;28.92
17209;BME280;8720;48.488;9.202;2023-06-10T12:27:27;96644.50;;;31.28;29.23
17209;BME280;8720;48.488;9.202;2023-06-10T12:29:56;96631.16;;;31.27;29.05
17209;BME280;8720;48.488;9.202;2023-06-10T12:32:37;96633.88;;;31.27;28.69
17209;BME280;8720;48.488;9.202;2023-06-10T12:35:06;96631.16;;;31.27;28.79
17209;BME280;8720;48.488;9.202;2023-06-10T12:37:33;96630.31;;;31.34;28.98
17209;BME280;8720;48.488;9.202;2023-06-10T12:40:05;96631.34;;;31.33;28.38
17209;BME280;8720;48.488;9.202;2023-06-10T12:42:33;96628.44;;;31.35;28.56
17209;BME280;8720;48.488;9.202;2023-06-10T12:45:04;96627.13;;;31.39;28.97
17209;BME280;8720;48.488;9.202;2023-06-10T12:47:35;96624.72;;;31.44;28.70
17209;BME280;8720;48.488;9.202;2023-06-10T12:50:05;96624.69;;;31.52;28.99
17209;BME280;8720;48.488;9.202;2023-06-10T12:52:32;96629.22;;;31.60;28.59
17209;BME280;8720;48.488;9.202;2023-06-10T12:55:00;96628.34;;;31.67;28.77
17209;BME280;8720;48.488;9.202;2023-06-10T12:57:29;96624.09;;;31.73;28.59
17209;BME280;8720;48.488;9.202;2023-06-10T12:59:57;96625.78;;;31.74;28.50
17209;BME280;8720;48.488;9.202;2023-06-10T13:02:29;96618.19;;;31.69;28.30
17209;BME280;8720;48.488;9.202;2023-06-10T13:04:57;96623.28;;;31.64;28.54
17209;BME280;8720;48.488;9.202;2023-06-10T13:07:24;96625.34;;;31.62;28.32
17209;BME280;8720;48.488;9.202;2023-06-10T13:09:52;96613.34;;;31.57;27.73
17209;BME280;8720;48.488;9.202;2023-06-10T13:12:19;96612.03;;;31.53;28.34
17209;BME280;8720;48.488;9.202;2023-06-10T13:14:48;96608.47;;;31.52;28.32
17209;BME280;8720;48.488;9.202;2023-06-10T13:17:16;96609.81;;;31.56;28.26
17209;BME280;8720;48.488;9.202;2023-06-10T13:19:43;96610.47;;;31.58;27.72
17209;BME280;8720;48.488;9.202;2023-06-10T13:22:11;96598.09;;;31.64;28.21
17209;BME280;8720;48.488;9.202;2023-06-10T13:24:39;96597.22;;;31.71;28.03
17209;BME280;8720;48.488;9.202;2023-06-10T13:27:09;96602.91;;;31.76;28.10
17209;BME280;8720;48.488;9.202;2023-06-10T13:29:37;96597.16;;;31.79;28.07
17209;BME280;8720;48.488;9.202;2023-06-10T13:32:07;96594.75;;;31.84;28.06
17209;BME280;8720;48.488;9.202;2023-06-10T13:34:36;96600.66;;;31.88;27.97
17209;BME280;8720;48.488;9.202;2023-06-10T13:37:04;96595.59;;;31.85;28.03
17209;BME280;8720;48.488;9.202;2023-06-10T13:39:32;96597.66;;;31.83;28.06
17209;BME280;8720;48.488;9.202;2023-06-10T13:41:59;96588.38;;;31.77;27.91
17209;BME280;8720;48.488;9.202;2023-06-10T13:44:26;96599.72;;;31.73;28.07
17209;BME280;8720;48.488;9.202;2023-06-10T13:46:56;96591.31;;;31.68;28.19
17209;BME280;8720;48.488;9.202;2023-06-10T13:49:25;96583.53;;;31.65;28.11
17209;BME280;8720;48.488;9.202;2023-06-10T13:51:52;96583.91;;;31.62;28.00
17209;BME280;8720;48.488;9.202;2023-06-10T13:54:20;96590.66;;;31.66;28.02